createdAt,value
2019-03-31T00:00:40.828Z,56.66
2019-03-31T00:01:46.059Z,56.90
2019-03-31T00:02:49.531Z,56.76
2019-03-31T00:03:52.935Z,56.67
2019-03-31T00:04:56.369Z,56.81
2019-03-31T00:05:59.873Z,56.88
2019-03-31T00:07:03.406Z,56.98
2019-03-31T00:08:06.848Z,56.84
2019-03-31T00:09:10.456Z,56.60
2019-03-31T00:10:14.065Z,56.56
2019-03-31T00:11:17.658Z,56.56
2019-03-31T00:12:21.176Z,56.78
2019-03-31T00:13:24.690Z,56.63
2019-03-31T00:14:28.122Z,56.74
2019-03-31T00:15:31.569Z,56.93
2019-03-31T00:16:35.026Z,56.89
2019-03-31T00:17:38.456Z,56.68
2019-03-31T00:18:41.973Z,56.49
2019-03-31T00:19:45.415Z,56.21
2019-03-31T00:20:48.844Z,56.38
2019-03-31T00:21:52.299Z,56.71
2019-03-31T00:22:55.790Z,57.00
2019-03-31T00:23:59.221Z,57.31
2019-03-31T00:25:03.084Z,57.40
2019-03-31T00:26:06.523Z,57.54
2019-03-31T00:27:10.002Z,57.52
2019-03-31T00:28:13.439Z,57.62
2019-03-31T00:29:16.947Z,57.72
2019-03-31T00:30:20.554Z,57.79
2019-03-31T00:31:23.997Z,57.61
2019-03-31T00:32:27.438Z,57.48
2019-03-31T00:33:30.973Z,57.41
2019-03-31T00:34:34.404Z,57.27
2019-03-31T00:35:37.834Z,57.20
2019-03-31T00:36:41.277Z,57.08
2019-03-31T00:37:44.778Z,56.93
2019-03-31T00:38:48.280Z,56.81
2019-03-31T00:39:51.706Z,56.75
2019-03-31T00:40:55.137Z,56.81
2019-03-31T00:41:58.588Z,56.89
2019-03-31T00:43:02.044Z,56.99
2019-03-31T00:44:05.491Z,56.91
2019-03-31T00:45:09.092Z,56.97
2019-03-31T00:46:12.539Z,56.97
2019-03-31T00:47:16.057Z,56.94
2019-03-31T00:48:19.481Z,56.94
2019-03-31T00:49:22.914Z,56.80
2019-03-31T00:50:26.364Z,56.64
2019-03-31T00:51:29.807Z,56.55
2019-03-31T00:52:33.265Z,56.43
2019-03-31T00:53:36.685Z,56.38
2019-03-31T00:54:40.189Z,56.57
2019-03-31T00:55:43.628Z,56.87
2019-03-31T00:56:47.066Z,57.15
2019-03-31T00:57:50.550Z,57.18
2019-03-31T00:58:53.954Z,57.09
2019-03-31T00:59:57.391Z,56.86
2019-03-31T01:01:03.600Z,56.58
2019-03-31T01:02:08.935Z,56.54
2019-03-31T01:03:12.365Z,56.64
2019-03-31T01:04:17.036Z,56.86
2019-03-31T01:05:20.540Z,57.07
2019-03-31T01:06:24.693Z,57.13
2019-03-31T01:07:28.149Z,57.17
2019-03-31T01:08:33.890Z,57.22
2019-03-31T01:09:37.491Z,57.40
2019-03-31T01:10:42.071Z,57.55
2019-03-31T01:11:45.842Z,57.79
2019-03-31T01:12:49.355Z,57.64
2019-03-31T01:13:52.957Z,57.65
2019-03-31T01:14:56.735Z,57.58
2019-03-31T01:16:00.408Z,57.72
2019-03-31T01:17:06.423Z,57.85
2019-03-31T01:18:10.882Z,57.62
2019-03-31T01:19:15.224Z,57.66
2019-03-31T01:20:18.677Z,57.67
2019-03-31T01:21:22.362Z,57.69
2019-03-31T01:22:25.888Z,57.68
2019-03-31T01:23:29.395Z,57.69
2019-03-31T01:24:32.967Z,58.07
2019-03-31T01:25:36.402Z,58.28
2019-03-31T01:26:39.965Z,58.28
2019-03-31T01:27:43.650Z,58.05
2019-03-31T01:28:47.163Z,57.98
2019-03-31T01:29:50.612Z,57.91
2019-03-31T01:30:54.183Z,57.87
2019-03-31T01:31:58.060Z,57.82
2019-03-31T01:33:01.820Z,57.89
2019-03-31T01:34:05.598Z,58.15
2019-03-31T01:35:11.304Z,58.21
2019-03-31T01:36:15.476Z,58.54
2019-03-31T01:37:20.281Z,58.68
2019-03-31T01:38:24.171Z,58.77
2019-03-31T01:39:29.107Z,58.91
2019-03-31T01:40:32.679Z,58.70
2019-03-31T01:41:36.250Z,58.43
2019-03-31T01:42:39.759Z,58.36
2019-03-31T01:43:43.206Z,58.52
2019-03-31T01:44:46.716Z,58.63
2019-03-31T01:45:50.211Z,58.52
2019-03-31T01:46:53.852Z,58.41
2019-03-31T01:47:57.380Z,58.67
2019-03-31T01:49:01.051Z,58.60
2019-03-31T01:50:09.515Z,58.70
2019-03-31T01:51:12.949Z,58.85
2019-03-31T01:52:16.450Z,58.94
2019-03-31T01:53:19.972Z,59.04
2019-03-31T01:54:23.476Z,59.16
2019-03-31T01:55:26.970Z,59.09
2019-03-31T01:56:30.446Z,59.14
2019-03-31T01:57:33.834Z,59.13
2019-03-31T01:58:37.285Z,59.21
2019-03-31T01:59:40.714Z,59.46
2019-03-31T02:00:46.065Z,59.83
2019-03-31T02:02:03.302Z,59.84
2019-03-31T02:02:54.868Z,59.64
2019-03-31T02:03:58.387Z,59.42
2019-03-31T02:05:01.818Z,59.29
2019-03-31T02:06:05.327Z,59.28
2019-03-31T02:07:08.997Z,59.24
2019-03-31T02:08:12.503Z,59.29
2019-03-31T02:09:15.980Z,59.46
2019-03-31T02:10:19.411Z,59.50
2019-03-31T02:11:22.848Z,59.50
2019-03-31T02:12:26.276Z,59.40
2019-03-31T02:13:29.783Z,59.27
2019-03-31T02:14:33.310Z,59.36
2019-03-31T02:15:36.806Z,59.36
2019-03-31T02:16:40.245Z,59.60
2019-03-31T02:17:43.677Z,59.70
2019-03-31T02:18:47.127Z,59.70
2019-03-31T02:19:50.563Z,59.75
2019-03-31T02:20:54.084Z,59.71
2019-03-31T02:21:57.506Z,59.51
2019-03-31T02:23:01.080Z,59.44
2019-03-31T02:24:04.671Z,59.35
2019-03-31T02:25:08.171Z,59.10
2019-03-31T02:26:11.611Z,59.10
2019-03-31T02:27:15.045Z,59.48
2019-03-31T02:28:18.487Z,59.49
2019-03-31T02:29:22.011Z,59.36
2019-03-31T02:30:25.449Z,59.35
2019-03-31T02:31:28.948Z,59.25
2019-03-31T02:32:32.379Z,59.16
2019-03-31T02:33:35.819Z,59.30
2019-03-31T02:34:39.267Z,59.37
2019-03-31T02:35:42.697Z,59.46
2019-03-31T02:36:46.126Z,59.53
2019-03-31T02:37:49.554Z,59.49
2019-03-31T02:38:53.018Z,59.49
2019-03-31T02:39:56.483Z,59.62
2019-03-31T02:41:00.026Z,59.66
2019-03-31T02:42:03.457Z,59.54
2019-03-31T02:43:06.884Z,59.77
2019-03-31T02:44:10.336Z,59.77
2019-03-31T02:45:14.148Z,59.94
2019-03-31T02:46:17.648Z,59.94
2019-03-31T02:47:21.146Z,60.07
2019-03-31T02:48:24.573Z,60.07
2019-03-31T02:49:28.040Z,60.00
2019-03-31T02:50:46.008Z,60.16
2019-03-31T02:51:49.445Z,60.48
2019-03-31T02:52:53.005Z,60.33
2019-03-31T02:53:56.721Z,60.37
2019-03-31T02:55:00.520Z,60.21
2019-03-31T02:56:04.876Z,60.12
2019-03-31T02:57:08.443Z,60.33
2019-03-31T02:58:14.235Z,60.50
2019-03-31T02:59:19.904Z,60.52
2019-03-31T03:00:23.404Z,60.40
2019-03-31T03:01:27.515Z,60.16
2019-03-31T03:02:41.379Z,60.20
2019-03-31T03:03:39.178Z,60.22
2019-03-31T03:04:43.166Z,60.14
2019-03-31T03:05:47.332Z,60.19
2019-03-31T03:06:53.806Z,60.14
2019-03-31T03:07:58.181Z,60.10
2019-03-31T03:09:06.333Z,59.98
2019-03-31T03:10:10.189Z,59.87
2019-03-31T03:11:16.900Z,59.79
2019-03-31T03:12:22.572Z,59.95
2019-03-31T03:13:27.798Z,60.16
2019-03-31T03:14:34.454Z,60.40
2019-03-31T03:15:52.832Z,60.42
2019-03-31T03:16:56.430Z,60.80
2019-03-31T03:17:59.860Z,61.01
2019-03-31T03:19:03.380Z,61.04
2019-03-31T03:20:07.159Z,60.97
2019-03-31T03:21:10.585Z,61.17
2019-03-31T03:22:14.020Z,61.29
2019-03-31T03:23:17.459Z,61.25
2019-03-31T03:24:20.897Z,61.25
2019-03-31T03:25:24.349Z,61.35
2019-03-31T03:26:27.777Z,61.60
2019-03-31T03:27:31.487Z,61.53
2019-03-31T03:28:34.919Z,61.24
2019-03-31T03:29:38.361Z,61.08
2019-03-31T03:30:41.872Z,61.08
2019-03-31T03:31:45.437Z,61.07
2019-03-31T03:33:13.495Z,61.15
2019-03-31T03:33:54.021Z,61.69
2019-03-31T03:34:57.544Z,61.90
2019-03-31T03:36:00.981Z,61.72
2019-03-31T03:37:04.547Z,61.62
2019-03-31T03:38:07.983Z,61.42
2019-03-31T03:39:11.435Z,61.58
2019-03-31T03:40:15.018Z,61.56
2019-03-31T03:41:18.522Z,61.30
2019-03-31T03:42:21.960Z,61.19
2019-03-31T03:43:25.378Z,61.56
2019-03-31T03:44:28.828Z,61.56
2019-03-31T03:45:39.684Z,61.65
2019-03-31T03:46:43.119Z,61.71
2019-03-31T03:47:46.650Z,61.77
2019-03-31T03:48:50.161Z,61.63
2019-03-31T03:49:53.617Z,61.42
2019-03-31T03:50:57.191Z,61.51
2019-03-31T03:52:00.619Z,61.61
2019-03-31T03:53:04.131Z,61.60
2019-03-31T03:54:07.590Z,61.42
2019-03-31T03:55:11.167Z,61.38
2019-03-31T03:56:14.596Z,61.29
2019-03-31T03:57:18.029Z,61.20
2019-03-31T03:58:21.537Z,61.32
2019-03-31T03:59:24.964Z,61.32
2019-03-31T04:00:28.463Z,60.94
2019-03-31T04:01:32.179Z,60.79
2019-03-31T04:02:35.637Z,60.77
2019-03-31T04:03:39.092Z,60.69
2019-03-31T04:04:42.660Z,60.66
2019-03-31T04:05:46.184Z,60.66
2019-03-31T04:06:49.613Z,60.88
2019-03-31T04:07:53.046Z,60.63
2019-03-31T04:08:56.475Z,60.53
2019-03-31T04:09:59.913Z,60.53
2019-03-31T04:11:11.993Z,60.69
2019-03-31T04:12:15.438Z,60.49
2019-03-31T04:13:18.866Z,60.49
2019-03-31T04:14:22.318Z,60.71
2019-03-31T04:15:25.864Z,60.50
2019-03-31T04:16:29.361Z,60.50
2019-03-31T04:17:32.791Z,60.66
2019-03-31T04:18:36.225Z,60.62
2019-03-31T04:19:39.674Z,60.56
2019-03-31T04:20:43.110Z,60.56
2019-03-31T04:21:46.531Z,60.67
2019-03-31T04:22:49.965Z,60.86
2019-03-31T04:23:53.552Z,60.81
2019-03-31T04:24:56.983Z,60.92
2019-03-31T04:26:00.450Z,61.35
2019-03-31T04:27:03.956Z,60.85
2019-03-31T04:28:07.415Z,60.85
2019-03-31T04:29:10.912Z,61.21
2019-03-31T04:30:14.349Z,61.52
2019-03-31T04:31:18.053Z,61.36
2019-03-31T04:32:21.574Z,61.34
2019-03-31T04:33:25.094Z,61.41
2019-03-31T04:34:28.664Z,61.41
2019-03-31T04:35:32.217Z,61.27
2019-03-31T04:36:35.734Z,61.05
2019-03-31T04:37:39.181Z,60.73
2019-03-31T04:38:42.690Z,60.47
2019-03-31T04:39:46.202Z,60.37
2019-03-31T04:40:49.744Z,60.81
2019-03-31T04:41:53.183Z,60.81
2019-03-31T04:42:56.622Z,60.74
2019-03-31T04:44:00.136Z,60.62
2019-03-31T04:45:03.915Z,60.62
2019-03-31T04:46:07.451Z,60.92
2019-03-31T04:47:10.901Z,60.87
2019-03-31T04:48:14.416Z,60.91
2019-03-31T04:49:17.867Z,60.91
2019-03-31T04:50:21.499Z,61.74
2019-03-31T04:51:25.034Z,61.78
2019-03-31T04:52:28.474Z,61.78
2019-03-31T04:53:32.036Z,61.72
2019-03-31T04:54:35.465Z,61.68
2019-03-31T04:55:38.992Z,61.65
2019-03-31T04:56:42.507Z,61.53
2019-03-31T04:57:46.021Z,61.53
2019-03-31T04:58:49.537Z,61.27
2019-03-31T04:59:52.997Z,61.38
2019-03-31T05:00:56.654Z,61.38
2019-03-31T05:02:00.184Z,61.23
2019-03-31T05:03:03.696Z,61.09
2019-03-31T05:04:07.149Z,61.09
2019-03-31T05:05:10.777Z,61.45
2019-03-31T05:06:14.368Z,61.68
2019-03-31T05:07:17.876Z,61.84
2019-03-31T05:08:21.409Z,62.05
2019-03-31T05:09:24.920Z,62.40
2019-03-31T05:10:28.370Z,62.40
2019-03-31T05:11:31.823Z,62.17
2019-03-31T05:12:35.335Z,62.19
2019-03-31T05:13:38.842Z,62.03
2019-03-31T05:14:42.285Z,61.86
2019-03-31T05:15:45.758Z,61.67
2019-03-31T05:16:49.212Z,61.62
2019-03-31T05:17:52.667Z,61.50
2019-03-31T05:18:56.124Z,61.50
2019-03-31T05:19:59.590Z,61.65
2019-03-31T05:21:03.267Z,61.69
2019-03-31T05:22:06.696Z,61.88
2019-03-31T05:23:10.130Z,61.86
2019-03-31T05:24:13.604Z,61.95
2019-03-31T05:25:17.039Z,61.89
2019-03-31T05:26:20.571Z,61.84
2019-03-31T05:27:24.082Z,61.91
2019-03-31T05:28:27.529Z,61.87
2019-03-31T05:29:30.989Z,61.57
2019-03-31T05:30:34.418Z,61.57
2019-03-31T05:31:37.932Z,61.39
2019-03-31T05:32:41.369Z,61.52
2019-03-31T05:33:44.827Z,61.52
2019-03-31T05:34:48.273Z,61.63
2019-03-31T05:35:51.806Z,61.52
2019-03-31T05:36:55.362Z,61.35
2019-03-31T05:37:58.822Z,61.16
2019-03-31T05:39:02.324Z,61.25
2019-03-31T05:40:06.018Z,61.27
2019-03-31T05:41:09.559Z,61.32
2019-03-31T05:42:12.997Z,61.31
2019-03-31T05:43:16.442Z,61.86
2019-03-31T05:44:19.873Z,61.86
2019-03-31T05:45:23.306Z,61.58
2019-03-31T05:46:26.768Z,61.67
2019-03-31T05:47:30.321Z,61.49
2019-03-31T05:48:33.742Z,61.39
2019-03-31T05:49:37.182Z,61.31
2019-03-31T05:50:40.625Z,61.29
2019-03-31T05:51:44.201Z,61.12
2019-03-31T05:52:47.705Z,60.89
2019-03-31T05:53:51.207Z,60.89
2019-03-31T05:54:54.782Z,60.63
2019-03-31T05:55:58.366Z,60.30
2019-03-31T05:57:01.883Z,59.82
2019-03-31T05:58:05.451Z,59.89
2019-03-31T05:59:08.888Z,59.66
2019-03-31T06:00:12.482Z,59.58
2019-03-31T06:01:16.019Z,59.74
2019-03-31T06:02:19.712Z,60.09
2019-03-31T06:03:23.142Z,60.16
2019-03-31T06:04:33.049Z,60.16
2019-03-31T06:05:31.793Z,59.60
2019-03-31T06:06:37.048Z,59.54
2019-03-31T06:07:40.384Z,59.56
2019-03-31T06:08:43.879Z,59.53
2019-03-31T06:09:47.307Z,59.59
2019-03-31T06:10:50.801Z,59.72
2019-03-31T06:11:54.254Z,59.76
2019-03-31T06:12:57.700Z,59.47
2019-03-31T06:14:01.131Z,59.62
2019-03-31T06:15:05.200Z,59.62
2019-03-31T06:16:08.697Z,59.71
2019-03-31T06:17:12.307Z,59.79
2019-03-31T06:18:15.796Z,59.71
2019-03-31T06:19:19.269Z,59.44
2019-03-31T06:20:22.657Z,59.30
2019-03-31T06:21:29.097Z,59.24
2019-03-31T06:22:31.333Z,59.26
2019-03-31T06:23:34.755Z,59.08
2019-03-31T06:24:38.180Z,59.30
2019-03-31T06:25:41.611Z,59.30
2019-03-31T06:26:45.068Z,58.93
2019-03-31T06:27:48.609Z,58.60
2019-03-31T06:28:52.041Z,57.65
2019-03-31T06:29:55.579Z,57.65
2019-03-31T06:30:59.017Z,57.82
2019-03-31T06:32:02.553Z,57.70
2019-03-31T06:33:06.126Z,57.50
2019-03-31T06:34:09.728Z,57.43
2019-03-31T06:35:13.305Z,57.47
2019-03-31T06:36:16.729Z,57.39
2019-03-31T06:37:20.174Z,57.34
2019-03-31T06:38:23.602Z,57.21
2019-03-31T06:39:27.039Z,57.24
2019-03-31T06:40:30.542Z,57.21
2019-03-31T06:41:34.052Z,56.91
2019-03-31T06:42:37.477Z,56.88
2019-03-31T06:43:40.904Z,56.79
2019-03-31T06:44:44.333Z,56.29
2019-03-31T06:45:47.758Z,56.29
2019-03-31T06:46:51.206Z,56.27
2019-03-31T06:47:54.634Z,56.37
2019-03-31T06:48:58.129Z,56.40
2019-03-31T06:50:01.565Z,56.23
2019-03-31T06:51:05.050Z,56.26
2019-03-31T06:52:08.505Z,56.22
2019-03-31T06:53:11.938Z,56.06
2019-03-31T06:54:15.367Z,56.02
2019-03-31T06:55:18.872Z,56.02
2019-03-31T06:56:22.548Z,55.80
2019-03-31T06:57:25.989Z,55.64
2019-03-31T06:58:29.411Z,55.50
2019-03-31T06:59:32.844Z,55.38
2019-03-31T07:00:36.422Z,55.43
2019-03-31T07:01:39.846Z,56.03
2019-03-31T07:02:43.297Z,56.03
2019-03-31T07:03:46.740Z,55.74
2019-03-31T07:05:00.406Z,55.46
2019-03-31T07:05:55.450Z,55.28
2019-03-31T07:06:59.112Z,55.23
2019-03-31T07:08:03.213Z,55.11
2019-03-31T07:09:06.784Z,55.11
2019-03-31T07:10:10.581Z,55.22
2019-03-31T07:11:14.144Z,55.17
2019-03-31T07:12:17.762Z,55.06
2019-03-31T07:13:21.335Z,54.94
2019-03-31T07:14:24.833Z,54.75
2019-03-31T07:15:28.400Z,54.74
2019-03-31T07:16:31.903Z,54.66
2019-03-31T07:17:35.557Z,54.58
2019-03-31T07:18:39.107Z,54.58
2019-03-31T07:19:42.606Z,54.66
2019-03-31T07:20:46.181Z,54.63
2019-03-31T07:21:49.668Z,54.48
2019-03-31T07:22:53.194Z,54.38
2019-03-31T07:23:56.691Z,54.34
2019-03-31T07:25:00.458Z,54.27
2019-03-31T07:26:04.131Z,54.13
2019-03-31T07:27:07.803Z,54.01
2019-03-31T07:28:11.354Z,53.97
2019-03-31T07:29:15.055Z,53.90
2019-03-31T07:30:19.852Z,53.83
2019-03-31T07:31:23.303Z,53.69
2019-03-31T07:32:26.909Z,53.64
2019-03-31T07:33:30.564Z,53.61
2019-03-31T07:34:34.184Z,53.48
2019-03-31T07:35:39.124Z,53.39
2019-03-31T07:36:43.177Z,53.24
2019-03-31T07:37:47.831Z,53.17
2019-03-31T07:38:51.737Z,52.92
2019-03-31T07:39:55.700Z,52.99
2019-03-31T07:41:12.018Z,52.66
2019-03-31T07:42:05.019Z,52.72
2019-03-31T07:43:08.788Z,52.57
2019-03-31T07:44:15.224Z,52.59
2019-03-31T07:45:17.983Z,52.59
2019-03-31T07:46:21.492Z,52.47
2019-03-31T07:47:25.157Z,52.49
2019-03-31T07:48:28.673Z,52.27
2019-03-31T07:49:32.174Z,52.13
2019-03-31T07:50:35.679Z,52.09
2019-03-31T07:51:39.120Z,52.06
2019-03-31T07:52:42.971Z,52.05
2019-03-31T07:53:46.418Z,52.00
2019-03-31T07:54:49.708Z,51.93
2019-03-31T07:55:53.182Z,51.83
2019-03-31T07:56:56.589Z,51.73
2019-03-31T07:58:00.115Z,51.67
2019-03-31T07:59:03.514Z,51.65
2019-03-31T08:00:14.145Z,51.58
2019-03-31T08:01:17.694Z,51.64
2019-03-31T08:02:21.144Z,52.00
2019-03-31T08:03:24.598Z,51.75
2019-03-31T08:04:28.031Z,51.29
2019-03-31T08:05:33.350Z,51.35
2019-03-31T08:06:36.699Z,51.39
2019-03-31T08:07:40.297Z,51.17
2019-03-31T08:08:43.730Z,51.26
2019-03-31T08:09:47.264Z,50.94
2019-03-31T08:10:50.727Z,51.06
2019-03-31T08:11:54.141Z,50.90
2019-03-31T08:12:57.618Z,50.38
2019-03-31T08:14:01.072Z,49.98
2019-03-31T08:15:06.614Z,49.70
2019-03-31T08:16:10.054Z,49.64
2019-03-31T08:17:13.487Z,49.76
2019-03-31T08:18:16.945Z,49.71
2019-03-31T08:19:20.856Z,49.63
2019-03-31T08:20:24.428Z,49.63
2019-03-31T08:21:27.868Z,49.45
2019-03-31T08:22:31.373Z,49.28
2019-03-31T08:23:38.001Z,48.98
2019-03-31T08:24:43.845Z,48.54
2019-03-31T08:25:47.329Z,48.41
2019-03-31T08:26:50.794Z,48.45
2019-03-31T08:27:54.350Z,48.70
2019-03-31T08:28:58.711Z,48.71
2019-03-31T08:30:02.207Z,48.64
2019-03-31T08:31:05.667Z,48.54
2019-03-31T08:32:09.515Z,48.54
2019-03-31T08:33:12.973Z,48.21
2019-03-31T08:34:16.417Z,47.95
2019-03-31T08:35:19.987Z,47.61
2019-03-31T08:36:23.424Z,47.47
2019-03-31T08:37:26.865Z,47.82
2019-03-31T08:38:30.311Z,48.10
2019-03-31T08:39:33.813Z,48.05
2019-03-31T08:40:37.322Z,47.61
2019-03-31T08:41:40.761Z,47.52
2019-03-31T08:42:44.258Z,47.71
2019-03-31T08:43:47.717Z,47.67
2019-03-31T08:44:51.146Z,47.04
2019-03-31T08:45:54.586Z,47.28
2019-03-31T08:46:58.022Z,47.26
2019-03-31T08:48:01.555Z,46.67
2019-03-31T08:49:04.985Z,46.47
2019-03-31T08:50:09.803Z,46.47
2019-03-31T08:51:13.294Z,45.69
2019-03-31T08:52:16.797Z,45.12
2019-03-31T08:53:20.329Z,45.75
2019-03-31T08:54:23.760Z,45.69
2019-03-31T08:55:27.208Z,45.73
2019-03-31T08:56:30.645Z,45.51
2019-03-31T08:57:34.080Z,45.42
2019-03-31T08:58:37.546Z,44.95
2019-03-31T08:59:41.010Z,44.64
2019-03-31T09:00:49.048Z,44.42
2019-03-31T09:01:52.521Z,44.82
2019-03-31T09:02:55.997Z,44.84
2019-03-31T09:03:59.421Z,44.69
2019-03-31T09:05:05.199Z,44.22
2019-03-31T09:06:08.787Z,44.04
2019-03-31T09:07:12.288Z,44.26
2019-03-31T09:08:15.793Z,44.46
2019-03-31T09:09:19.251Z,44.73
2019-03-31T09:10:22.702Z,45.33
2019-03-31T09:11:26.141Z,44.66
2019-03-31T09:12:29.700Z,44.78
2019-03-31T09:13:35.295Z,44.76
2019-03-31T09:14:38.374Z,44.58
2019-03-31T09:15:41.778Z,44.58
2019-03-31T09:16:45.217Z,44.50
2019-03-31T09:17:48.725Z,44.51
2019-03-31T09:18:52.182Z,44.08
2019-03-31T09:19:55.635Z,44.00
2019-03-31T09:20:59.072Z,44.07
2019-03-31T09:22:02.595Z,44.08
2019-03-31T09:23:06.175Z,44.06
2019-03-31T09:24:09.630Z,44.03
2019-03-31T09:25:13.528Z,43.07
2019-03-31T09:26:17.021Z,43.15
2019-03-31T09:27:20.445Z,43.14
2019-03-31T09:28:23.893Z,42.67
2019-03-31T09:29:27.363Z,42.05
2019-03-31T09:30:30.898Z,42.13
2019-03-31T09:31:34.371Z,41.73
2019-03-31T09:32:37.849Z,41.52
2019-03-31T09:33:41.300Z,41.83
2019-03-31T09:34:44.751Z,41.38
2019-03-31T09:35:48.280Z,41.69
2019-03-31T09:36:51.789Z,41.56
2019-03-31T09:37:55.255Z,41.11
2019-03-31T09:38:58.693Z,41.44
2019-03-31T09:40:02.224Z,41.30
2019-03-31T09:41:05.749Z,40.92
2019-03-31T09:42:09.187Z,41.11
2019-03-31T09:43:12.626Z,40.70
2019-03-31T09:44:16.061Z,40.47
2019-03-31T09:45:19.790Z,40.32
2019-03-31T09:46:23.230Z,40.73
2019-03-31T09:47:26.658Z,40.78
2019-03-31T09:48:30.247Z,40.53
2019-03-31T09:49:33.748Z,40.44
2019-03-31T09:50:37.213Z,40.50
2019-03-31T09:51:40.691Z,39.86
2019-03-31T09:52:44.280Z,39.12
2019-03-31T09:53:47.866Z,38.17
2019-03-31T09:54:51.432Z,36.63
2019-03-31T09:55:54.924Z,37.07
2019-03-31T09:56:58.441Z,37.05
2019-03-31T09:58:01.864Z,36.69
2019-03-31T09:59:05.438Z,37.03
2019-03-31T10:00:18.776Z,36.92
2019-03-31T10:01:22.236Z,36.25
2019-03-31T10:02:25.670Z,35.59
2019-03-31T10:03:29.125Z,35.80
2019-03-31T10:04:32.636Z,36.11
2019-03-31T10:05:36.166Z,35.17
2019-03-31T10:06:40.165Z,35.12
2019-03-31T10:07:43.671Z,35.36
2019-03-31T10:08:48.082Z,35.92
2019-03-31T10:09:52.363Z,35.55
2019-03-31T10:10:55.906Z,35.09
2019-03-31T10:11:59.409Z,35.22
2019-03-31T10:13:02.854Z,35.32
2019-03-31T10:14:06.359Z,35.29
2019-03-31T10:15:10.227Z,35.33
2019-03-31T10:16:13.687Z,35.84
2019-03-31T10:17:17.119Z,35.45
2019-03-31T10:18:20.558Z,34.95
2019-03-31T10:19:24.138Z,35.11
2019-03-31T10:20:31.164Z,34.57
2019-03-31T10:21:32.851Z,34.81
2019-03-31T10:22:36.434Z,35.04
2019-03-31T10:23:39.865Z,34.28
2019-03-31T10:24:43.372Z,34.39
2019-03-31T10:25:46.884Z,34.17
2019-03-31T10:26:50.407Z,34.33
2019-03-31T10:27:53.844Z,34.44
2019-03-31T10:28:57.275Z,34.90
2019-03-31T10:30:00.719Z,35.13
2019-03-31T10:31:04.363Z,35.30
2019-03-31T10:32:07.819Z,35.11
2019-03-31T10:33:11.285Z,34.23
2019-03-31T10:34:14.697Z,34.51
2019-03-31T10:35:18.129Z,34.76
2019-03-31T10:36:21.663Z,33.78
2019-03-31T10:37:25.132Z,33.59
2019-03-31T10:38:28.646Z,33.42
2019-03-31T10:39:32.081Z,33.29
2019-03-31T10:40:35.661Z,33.42
2019-03-31T10:41:39.204Z,33.76
2019-03-31T10:42:42.658Z,34.24
2019-03-31T10:43:46.153Z,33.53
2019-03-31T10:44:49.597Z,32.59
2019-03-31T10:45:53.034Z,32.58
2019-03-31T10:46:58.429Z,32.72
2019-03-31T10:48:01.792Z,32.68
2019-03-31T10:49:05.305Z,33.63
2019-03-31T10:50:09.095Z,34.03
2019-03-31T10:51:12.618Z,33.11
2019-03-31T10:52:16.144Z,33.44
2019-03-31T10:53:19.835Z,34.09
2019-03-31T10:54:23.271Z,33.37
2019-03-31T10:55:26.773Z,33.99
2019-03-31T10:56:30.221Z,35.56
2019-03-31T10:57:33.675Z,34.31
2019-03-31T10:58:37.121Z,33.51
2019-03-31T10:59:40.810Z,32.53
2019-03-31T11:00:44.917Z,32.99
2019-03-31T11:01:48.423Z,33.28
2019-03-31T11:02:52.032Z,34.06
2019-03-31T11:03:55.482Z,32.68
2019-03-31T11:04:58.932Z,31.59
2019-03-31T11:06:02.371Z,31.69
2019-03-31T11:07:06.031Z,31.30
2019-03-31T11:08:09.628Z,30.90
2019-03-31T11:09:13.145Z,31.05
2019-03-31T11:10:16.888Z,30.90
2019-03-31T11:11:20.462Z,30.37
2019-03-31T11:12:23.896Z,29.52
2019-03-31T11:13:28.272Z,30.46
2019-03-31T11:14:31.871Z,30.11
2019-03-31T11:15:35.490Z,30.46
2019-03-31T11:16:39.050Z,29.60
2019-03-31T11:17:42.502Z,29.64
2019-03-31T11:18:45.967Z,30.08
2019-03-31T11:19:49.551Z,30.83
2019-03-31T11:20:53.125Z,30.43
2019-03-31T11:21:58.226Z,30.71
2019-03-31T11:23:06.052Z,30.75
2019-03-31T11:24:09.495Z,30.37
2019-03-31T11:25:21.086Z,29.83
2019-03-31T11:26:18.323Z,29.55
2019-03-31T11:27:21.828Z,29.65
2019-03-31T11:28:25.360Z,29.64
2019-03-31T11:29:28.959Z,28.77
2019-03-31T11:30:32.372Z,28.59
2019-03-31T11:31:35.949Z,29.09
2019-03-31T11:32:39.577Z,29.75
2019-03-31T11:33:43.097Z,30.30
2019-03-31T11:34:46.622Z,29.76
2019-03-31T11:35:50.315Z,29.46
2019-03-31T11:36:53.963Z,28.78
2019-03-31T11:37:57.479Z,28.65
2019-03-31T11:39:00.950Z,28.78
2019-03-31T11:40:06.724Z,28.89
2019-03-31T11:41:10.344Z,29.02
2019-03-31T11:42:13.855Z,28.48
2019-03-31T11:43:17.445Z,27.60
2019-03-31T11:44:20.969Z,27.59
2019-03-31T11:45:24.539Z,28.01
2019-03-31T11:46:28.046Z,26.50
2019-03-31T11:47:31.545Z,26.16
2019-03-31T11:48:34.980Z,26.50
2019-03-31T11:49:38.442Z,26.63
2019-03-31T11:50:41.949Z,27.07
2019-03-31T11:51:45.498Z,26.39
2019-03-31T11:52:48.908Z,26.77
2019-03-31T11:53:52.486Z,27.06
2019-03-31T11:54:55.943Z,26.92
2019-03-31T11:55:59.400Z,27.16
2019-03-31T11:57:02.836Z,27.80
2019-03-31T11:58:06.267Z,28.03
2019-03-31T11:59:09.972Z,27.27
2019-03-31T12:00:15.351Z,27.82
2019-03-31T12:01:18.791Z,27.84
2019-03-31T12:02:27.331Z,28.25
2019-03-31T12:03:30.744Z,27.92
2019-03-31T12:04:33.190Z,27.73
2019-03-31T12:05:36.707Z,27.49
2019-03-31T12:06:40.430Z,27.94
2019-03-31T12:07:47.093Z,27.21
2019-03-31T12:08:49.111Z,27.01
2019-03-31T12:09:52.552Z,26.74
2019-03-31T12:10:56.147Z,27.01
2019-03-31T12:11:59.883Z,27.19
2019-03-31T12:13:03.524Z,27.27
2019-03-31T12:14:07.030Z,27.36
2019-03-31T12:15:11.417Z,27.64
2019-03-31T12:16:14.942Z,27.19
2019-03-31T12:17:18.455Z,26.34
2019-03-31T12:18:21.917Z,26.71
2019-03-31T12:19:25.370Z,25.72
2019-03-31T12:20:28.809Z,25.59
2019-03-31T12:21:32.262Z,24.65
2019-03-31T12:22:35.782Z,25.20
2019-03-31T12:23:39.295Z,24.30
2019-03-31T12:24:42.730Z,24.51
2019-03-31T12:25:46.168Z,24.43
2019-03-31T12:26:49.623Z,24.80
2019-03-31T12:27:53.066Z,24.39
2019-03-31T12:28:56.511Z,24.61
2019-03-31T12:29:59.942Z,24.63
2019-03-31T12:31:03.380Z,24.03
2019-03-31T12:32:06.903Z,24.02
2019-03-31T12:33:10.333Z,24.01
2019-03-31T12:34:13.841Z,23.97
2019-03-31T12:35:17.319Z,23.47
2019-03-31T12:36:20.848Z,23.62
2019-03-31T12:37:24.276Z,22.78
2019-03-31T12:38:27.772Z,22.25
2019-03-31T12:39:31.311Z,22.10
2019-03-31T12:40:36.466Z,22.14
2019-03-31T12:41:39.916Z,21.68
2019-03-31T12:42:43.369Z,21.13
2019-03-31T12:43:46.800Z,20.52
2019-03-31T12:44:50.244Z,20.51
2019-03-31T12:45:53.759Z,20.35
2019-03-31T12:46:57.232Z,20.07
2019-03-31T12:48:01.453Z,19.97
2019-03-31T12:49:05.347Z,18.94
2019-03-31T12:50:08.961Z,18.94
2019-03-31T12:51:12.463Z,18.12
2019-03-31T12:52:15.923Z,18.55
2019-03-31T12:53:19.356Z,18.98
2019-03-31T12:54:22.798Z,18.98
2019-03-31T12:55:26.233Z,18.64
2019-03-31T12:56:29.759Z,18.70
2019-03-31T12:57:33.273Z,17.97
2019-03-31T12:58:36.706Z,18.69
2019-03-31T12:59:40.145Z,18.69
2019-03-31T13:00:43.577Z,18.45
2019-03-31T13:01:47.111Z,17.80
2019-03-31T13:02:50.620Z,17.62
2019-03-31T13:03:54.070Z,17.60
2019-03-31T13:04:57.499Z,17.60
2019-03-31T13:06:00.934Z,17.46
2019-03-31T13:07:04.450Z,16.93
2019-03-31T13:08:07.962Z,16.93
2019-03-31T13:09:11.480Z,17.67
2019-03-31T13:10:15.120Z,18.15
2019-03-31T13:11:18.551Z,18.06
2019-03-31T13:12:22.007Z,17.76
2019-03-31T13:13:25.434Z,17.32
2019-03-31T13:14:28.869Z,17.11
2019-03-31T13:15:32.308Z,17.57
2019-03-31T13:16:35.751Z,17.36
2019-03-31T13:17:39.179Z,17.40
2019-03-31T13:18:42.694Z,17.70
2019-03-31T13:19:46.189Z,17.31
2019-03-31T13:20:49.985Z,17.46
2019-03-31T13:21:53.455Z,17.39
2019-03-31T13:22:56.919Z,17.14
2019-03-31T13:24:00.418Z,16.95
2019-03-31T13:25:04.892Z,16.51
2019-03-31T13:26:08.330Z,17.62
2019-03-31T13:27:11.791Z,16.91
2019-03-31T13:28:15.240Z,16.87
2019-03-31T13:29:18.668Z,15.86
2019-03-31T13:30:22.314Z,15.77
2019-03-31T13:31:25.715Z,15.50
2019-03-31T13:32:29.167Z,14.92
2019-03-31T13:33:32.607Z,14.20
2019-03-31T13:34:36.117Z,14.53
2019-03-31T13:35:39.634Z,14.27
2019-03-31T13:36:43.136Z,14.47
2019-03-31T13:37:46.671Z,13.38
2019-03-31T13:38:50.121Z,13.52
2019-03-31T13:39:53.551Z,13.16
2019-03-31T13:40:57.128Z,13.19